KGCK/GCK METAR and TAF weather

Enter ICAO airport designator
Station Type Date Time Source
KGCK METAR 2019/02/17 06:54 UTC NOAA

KGCK 170654Z AUTO 29009KT 9SM CLR M07/M08 A2971 RMK AO2 SLP092 I1000 T10671078


Station Type Date Time Source
KGCK Decoded METAR 2019/02/17 06:54 UTC NOAA

GARDEN CITY REGIONAL AIRPORT, KS, United States (KGCK) 37-55N 100-43W 877M
Feb 17, 2019 - 01:54 AM EST / 2019.02.17 0654 UTC
Wind: from the WNW (290 degrees) at 10 MPH (9 KT):0
Visibility: 9 mile(s):0
Sky conditions: clear
Temperature: 19.9 F (-6.7 C)
Windchill: 8 F (-13 C):1
Dew Point: 18.0 F (-7.8 C)
Relative Humidity: 91%
Pressure (altimeter): 29.71 in. Hg (1006 hPa)
ob: KGCK 170654Z AUTO 29009KT 9SM CLR M07/M08 A2971 RMK AO2 SLP092 I1000 T10671078
cycle: 7

Station Type Date Time Source
KGCK TAF 2019/02/17 06:22 UTC NOAA

TAF KGCK 170520Z 1706/1806 27007KT P6SM BKN100
FM171100 33009KT P6SM SKC
FM172200 36012KT P6SM SKC


Example: see airport list